createdAt,value
2023-01-20T00:01:33.692Z,11.70
2023-01-20T00:04:14.987Z,11.90
2023-01-20T00:06:50.345Z,11.60
2023-01-20T00:09:22.409Z,11.80
2023-01-20T00:11:50.285Z,12.10
2023-01-20T00:14:18.151Z,12.00
2023-01-20T00:16:48.876Z,11.80
2023-01-20T00:19:16.845Z,11.70
2023-01-20T00:21:44.968Z,11.60
2023-01-20T00:24:15.044Z,11.30
2023-01-20T00:26:46.793Z,10.90
2023-01-20T00:29:17.449Z,11.10
2023-01-20T00:31:53.963Z,11.20
2023-01-20T00:34:24.735Z,10.70
2023-01-20T00:36:52.593Z,11.10
2023-01-20T00:39:29.642Z,11.00
2023-01-20T00:41:59.037Z,11.00
2023-01-20T00:44:37.285Z,10.90
2023-01-20T00:47:05.507Z,11.00
2023-01-20T00:49:35.831Z,11.00
2023-01-20T00:52:05.889Z,11.00
2023-01-20T00:54:36.771Z,10.90
2023-01-20T00:57:09.098Z,10.90
2023-01-20T00:59:42.820Z,11.20
2023-01-20T01:02:16.893Z,11.30
2023-01-20T01:04:44.778Z,11.10
2023-01-20T01:07:15.538Z,11.20
2023-01-20T01:09:57.872Z,11.60
2023-01-20T01:12:33.570Z,11.80
2023-01-20T01:15:01.435Z,12.00
2023-01-20T01:17:29.351Z,11.90
2023-01-20T01:19:57.227Z,11.90
2023-01-20T01:22:28.354Z,11.90
2023-01-20T01:24:59.123Z,11.60
2023-01-20T01:27:28.973Z,11.30
2023-01-20T01:30:07.147Z,11.40
2023-01-20T01:32:37.834Z,11.30
2023-01-20T01:35:09.401Z,11.40
2023-01-20T01:37:40.160Z,11.40
2023-01-20T01:40:12.290Z,11.70
2023-01-20T01:42:48.364Z,11.90
2023-01-20T01:45:25.119Z,12.10
2023-01-20T01:47:59.865Z,12.20
2023-01-20T01:50:32.969Z,12.40
2023-01-20T01:53:01.240Z,12.60
2023-01-20T01:55:32.505Z,12.60
2023-01-20T01:58:04.331Z,12.60
2023-01-20T02:00:33.617Z,12.80
2023-01-20T02:03:01.750Z,12.50
2023-01-20T02:05:31.460Z,12.10
2023-01-20T02:08:00.242Z,11.50
2023-01-20T02:10:31.545Z,11.00
2023-01-20T02:13:06.257Z,10.90
2023-01-20T02:15:41.858Z,10.90
2023-01-20T02:18:35.281Z,11.20
2023-01-20T02:21:41.410Z,11.00
2023-01-20T02:24:35.693Z,10.80
2023-01-20T02:27:10.445Z,11.00
2023-01-20T02:30:11.538Z,11.00
2023-01-20T02:32:50.966Z,10.90
2023-01-20T02:35:27.033Z,11.30
2023-01-20T02:38:12.974Z,11.00
2023-01-20T02:40:55.490Z,11.50
2023-01-20T02:43:36.134Z,11.50
2023-01-20T02:46:12.685Z,11.60
2023-01-20T02:48:47.728Z,11.50
2023-01-20T02:51:19.493Z,11.30
2023-01-20T02:53:53.972Z,11.10
2023-01-20T02:56:25.872Z,10.80
2023-01-20T02:59:03.393Z,10.80
2023-01-20T03:01:47.791Z,10.80
2023-01-20T03:04:20.833Z,10.70
2023-01-20T03:06:52.871Z,10.40
2023-01-20T03:09:28.484Z,10.70
2023-01-20T03:12:10.485Z,11.10
2023-01-20T03:14:47.354Z,11.40
2023-01-20T03:17:17.979Z,11.60
2023-01-20T03:19:47.584Z,11.90
2023-01-20T03:22:21.004Z,11.90
2023-01-20T03:24:55.869Z,11.60
2023-01-20T03:27:27.382Z,11.10
2023-01-20T03:29:55.238Z,10.60
2023-01-20T03:32:27.097Z,10.90
2023-01-20T03:34:57.783Z,11.10
2023-01-20T03:37:28.419Z,11.20
2023-01-20T03:40:02.737Z,11.50
2023-01-20T03:42:40.330Z,11.70
2023-01-20T03:45:25.333Z,11.60
2023-01-20T03:48:09.707Z,11.80
2023-01-20T03:50:47.943Z,12.00
2023-01-20T03:53:26.981Z,12.10
2023-01-20T03:56:03.665Z,12.10
2023-01-20T03:58:34.440Z,12.30
2023-01-20T04:01:14.974Z,12.40
2023-01-20T04:03:49.807Z,12.30
2023-01-20T04:06:24.845Z,12.10
2023-01-20T04:08:59.531Z,12.10
2023-01-20T04:11:27.851Z,12.00
2023-01-20T04:13:58.842Z,11.90
2023-01-20T04:16:34.430Z,11.60
2023-01-20T04:19:05.327Z,11.70
2023-01-20T04:21:37.822Z,11.80
2023-01-20T04:24:09.792Z,11.70
2023-01-20T04:26:40.804Z,11.90
2023-01-20T04:29:13.191Z,12.00
2023-01-20T04:31:41.271Z,12.10
2023-01-20T04:34:13.636Z,11.70
2023-01-20T04:36:48.449Z,11.50
2023-01-20T04:39:16.332Z,11.60
2023-01-20T04:41:44.179Z,10.80
2023-01-20T04:44:12.073Z,10.90
2023-01-20T04:46:45.443Z,11.30
2023-01-20T04:49:13.305Z,11.80
2023-01-20T04:52:06.012Z,12.00
2023-01-20T04:54:45.866Z,12.30
2023-01-20T04:57:16.757Z,12.50
2023-01-20T04:59:47.314Z,12.40
2023-01-20T05:02:15.270Z,12.50
2023-01-20T05:04:43.171Z,12.60
2023-01-20T05:07:18.396Z,12.60
2023-01-20T05:09:46.308Z,12.70
2023-01-20T05:12:14.263Z,12.60
2023-01-20T05:14:45.159Z,12.80
2023-01-20T05:17:18.251Z,12.90
2023-01-20T05:19:46.123Z,13.00
2023-01-20T05:22:15.340Z,13.00
2023-01-20T05:24:57.935Z,13.00
2023-01-20T05:27:25.819Z,13.20
2023-01-20T05:30:02.867Z,13.20
2023-01-20T05:32:33.559Z,13.20
2023-01-20T05:35:04.334Z,13.40
2023-01-20T05:37:33.583Z,13.50
2023-01-20T05:40:01.458Z,13.40
2023-01-20T05:42:42.948Z,13.40
2023-01-20T05:45:13.886Z,13.40
2023-01-20T05:47:44.909Z,13.20
2023-01-20T05:50:20.885Z,12.90
2023-01-20T05:52:52.735Z,12.80
2023-01-20T05:55:20.863Z,13.00
2023-01-20T05:57:54.875Z,13.20
2023-01-20T06:00:23.639Z,13.20
2023-01-20T06:03:00.614Z,13.10
2023-01-20T06:05:28.556Z,13.00
2023-01-20T06:07:58.457Z,12.80
2023-01-20T06:10:29.071Z,12.60
2023-01-20T06:13:03.080Z,12.50
2023-01-20T06:15:31.017Z,12.20
2023-01-20T06:18:06.497Z,11.60
2023-01-20T06:20:37.168Z,11.90
2023-01-20T06:23:09.523Z,12.10
2023-01-20T06:25:43.968Z,12.10
2023-01-20T06:28:11.853Z,12.20
2023-01-20T06:30:43.191Z,12.40
2023-01-20T06:33:11.362Z,12.30
2023-01-20T06:35:41.696Z,12.50
2023-01-20T06:38:10.948Z,12.60
2023-01-20T06:40:38.964Z,12.70
2023-01-20T06:43:09.844Z,12.90
2023-01-20T06:45:38.382Z,12.90
2023-01-20T06:48:06.603Z,13.00
2023-01-20T06:50:37.581Z,13.10
2023-01-20T06:53:05.479Z,13.10
2023-01-20T06:55:34.792Z,13.10
2023-01-20T06:58:02.634Z,13.20
2023-01-20T07:00:30.591Z,13.10
2023-01-20T07:02:58.510Z,13.00
2023-01-20T07:05:26.366Z,12.70
2023-01-20T07:07:54.280Z,12.80
2023-01-20T07:10:22.290Z,12.90
2023-01-20T07:12:54.388Z,12.90
2023-01-20T07:15:26.995Z,12.80
2023-01-20T07:18:02.424Z,12.60
2023-01-20T07:20:33.372Z,12.60
2023-01-20T07:23:06.818Z,12.70
2023-01-20T07:25:34.701Z,12.50
2023-01-20T07:28:03.913Z,12.00
2023-01-20T07:30:31.865Z,12.00
2023-01-20T07:32:59.748Z,11.90
2023-01-20T07:35:33.462Z,12.10
2023-01-20T07:38:01.524Z,12.50
2023-01-20T07:40:31.674Z,12.90
2023-01-20T07:43:01.939Z,13.10
2023-01-20T07:45:31.226Z,13.20
2023-01-20T07:48:03.131Z,13.40
2023-01-20T07:50:51.182Z,13.50
2023-01-20T07:53:21.567Z,13.70
2023-01-20T07:55:52.352Z,13.70
2023-01-20T07:58:23.063Z,13.70
2023-01-20T08:00:52.288Z,13.70
2023-01-20T08:03:20.210Z,13.60
2023-01-20T08:05:53.694Z,13.70
2023-01-20T08:08:27.851Z,13.50
2023-01-20T08:10:56.485Z,12.90
2023-01-20T08:13:32.110Z,12.30
2023-01-20T08:16:03.685Z,12.20
2023-01-20T08:18:38.212Z,12.10
2023-01-20T08:21:08.244Z,12.10
2023-01-20T08:23:36.931Z,12.20
2023-01-20T08:26:07.343Z,12.30
2023-01-20T08:28:36.681Z,12.40
2023-01-20T08:31:07.942Z,12.60
2023-01-20T08:33:36.038Z,12.60
2023-01-20T08:36:12.022Z,12.60
2023-01-20T08:38:43.637Z,12.70
2023-01-20T08:41:13.844Z,12.80
2023-01-20T08:43:44.817Z,12.70
2023-01-20T08:46:16.117Z,12.50
2023-01-20T08:48:44.926Z,12.10
2023-01-20T08:51:15.032Z,12.00
2023-01-20T08:53:43.549Z,11.90
2023-01-20T08:56:15.358Z,12.00
2023-01-20T08:58:43.284Z,12.00
2023-01-20T09:01:13.589Z,12.30
2023-01-20T09:03:45.051Z,12.50
2023-01-20T09:06:18.083Z,12.70
2023-01-20T09:08:49.068Z,12.80
2023-01-20T09:11:19.080Z,12.90
2023-01-20T09:13:53.333Z,13.10
2023-01-20T09:16:25.547Z,13.00
2023-01-20T09:18:53.394Z,13.10
2023-01-20T09:21:21.245Z,13.10
2023-01-20T09:23:51.430Z,12.90
2023-01-20T09:26:34.252Z,13.10
2023-01-20T09:29:09.020Z,13.10
2023-01-20T09:31:45.095Z,13.10
2023-01-20T09:34:20.874Z,13.20
2023-01-20T09:36:53.105Z,13.10
2023-01-20T09:39:38.887Z,13.30
2023-01-20T09:42:41.955Z,13.20
2023-01-20T09:45:27.187Z,13.30
2023-01-20T09:48:14.032Z,13.30
2023-01-20T09:51:07.340Z,13.40
2023-01-20T09:53:56.189Z,13.50
2023-01-20T09:56:28.304Z,13.50
2023-01-20T09:59:00.485Z,13.80
2023-01-20T10:01:40.260Z,13.90
2023-01-20T10:04:14.669Z,13.90
2023-01-20T10:06:45.657Z,13.80
2023-01-20T10:09:27.434Z,13.90
2023-01-20T10:12:02.636Z,14.10
2023-01-20T10:14:34.710Z,13.90
2023-01-20T10:17:08.999Z,13.40
2023-01-20T10:19:44.475Z,13.50
2023-01-20T10:22:18.625Z,13.50
2023-01-20T10:24:55.686Z,13.50
2023-01-20T10:27:29.604Z,13.60
2023-01-20T10:30:07.716Z,13.70
2023-01-20T10:32:47.432Z,13.80
2023-01-20T10:35:19.698Z,13.70
2023-01-20T10:37:47.601Z,13.80
2023-01-20T10:40:24.288Z,13.80
2023-01-20T10:42:57.594Z,13.80
2023-01-20T10:45:35.406Z,14.00
2023-01-20T10:48:13.392Z,14.10
2023-01-20T10:50:58.365Z,14.10
2023-01-20T10:53:53.967Z,14.00
2023-01-20T10:56:43.472Z,13.90
2023-01-20T10:59:15.917Z,13.20
2023-01-20T11:01:46.221Z,13.30
2023-01-20T11:04:20.092Z,13.50
2023-01-20T11:06:54.883Z,13.60
2023-01-20T11:09:42.681Z,13.70
2023-01-20T11:12:23.752Z,13.80
2023-01-20T11:14:54.703Z,13.80
2023-01-20T11:17:22.683Z,13.80
2023-01-20T11:19:55.620Z,13.80
2023-01-20T11:22:30.476Z,13.80
2023-01-20T11:24:59.930Z,13.80
2023-01-20T11:27:30.848Z,13.80
2023-01-20T11:30:01.951Z,13.70
2023-01-20T11:32:35.552Z,13.70
2023-01-20T11:35:22.126Z,13.70
2023-01-20T11:37:53.894Z,13.90
2023-01-20T11:40:24.363Z,14.10
2023-01-20T11:42:53.703Z,14.00
2023-01-20T11:45:34.592Z,13.70
2023-01-20T11:48:16.429Z,13.80
2023-01-20T11:51:01.860Z,13.80
2023-01-20T11:53:32.578Z,14.00
2023-01-20T11:56:03.061Z,14.20
2023-01-20T11:58:35.158Z,14.10
2023-01-20T12:01:05.325Z,14.10
2023-01-20T12:04:06.008Z,13.90
2023-01-20T12:06:37.427Z,13.90
2023-01-20T12:09:14.412Z,14.10
2023-01-20T12:11:56.460Z,14.00
2023-01-20T12:14:28.842Z,13.90
2023-01-20T12:17:15.466Z,14.10
2023-01-20T12:20:13.002Z,14.10
2023-01-20T12:22:49.071Z,14.20
2023-01-20T12:25:27.313Z,14.00
2023-01-20T12:27:58.495Z,13.60
2023-01-20T12:30:47.246Z,13.10
2023-01-20T12:33:40.303Z,12.00
2023-01-20T12:36:49.407Z,11.90
2023-01-20T12:39:40.714Z,11.90
2023-01-20T12:42:41.306Z,11.50
2023-01-20T12:45:28.839Z,11.30
2023-01-20T12:48:14.818Z,11.40
2023-01-20T12:51:14.828Z,11.10
2023-01-20T12:54:20.043Z,10.80
2023-01-20T12:56:58.489Z,11.00
2023-01-20T12:59:40.103Z,11.30
2023-01-20T13:02:54.147Z,10.90
2023-01-20T13:06:05.711Z,11.10
2023-01-20T13:09:07.000Z,11.60
2023-01-20T13:12:00.630Z,11.70
2023-01-20T13:14:41.191Z,11.70
2023-01-20T13:17:28.447Z,11.70
2023-01-20T13:20:02.448Z,11.90
2023-01-20T13:22:34.426Z,11.60
2023-01-20T13:25:05.444Z,11.70
2023-01-20T13:27:37.114Z,11.70
2023-01-20T13:30:43.707Z,11.40
2023-01-20T13:33:24.460Z,11.10
2023-01-20T13:35:59.913Z,10.80
2023-01-20T13:38:30.913Z,11.00
2023-01-20T13:41:06.153Z,10.90
2023-01-20T13:43:50.791Z,11.00
2023-01-20T13:46:55.056Z,10.90
2023-01-20T13:49:46.130Z,10.50
2023-01-20T13:52:14.540Z,10.40
2023-01-20T13:54:46.617Z,10.40
2023-01-20T13:57:44.726Z,10.60
2023-01-20T14:00:27.546Z,10.30
2023-01-20T14:02:55.525Z,10.70
2023-01-20T14:05:34.112Z,10.10
2023-01-20T14:08:06.997Z,9.50
2023-01-20T14:13:30.917Z,9.20
2023-01-20T14:16:18.629Z,9.00
2023-01-20T14:18:57.792Z,8.90
2023-01-20T14:21:28.319Z,8.80
2023-01-20T14:23:56.653Z,8.60
2023-01-20T14:26:26.825Z,8.40
2023-01-20T14:28:56.166Z,8.50
2023-01-20T14:31:37.507Z,8.20
2023-01-20T14:34:24.020Z,8.10
2023-01-20T14:37:00.752Z,8.00
2023-01-20T14:39:30.111Z,8.00
2023-01-20T14:41:59.481Z,7.60
2023-01-20T14:44:33.774Z,7.50
2023-01-20T14:47:03.333Z,7.60
2023-01-20T14:49:34.190Z,8.10
2023-01-20T14:52:21.823Z,8.00
2023-01-20T14:54:56.305Z,7.40
2023-01-20T14:57:31.788Z,6.80
2023-01-20T15:00:21.191Z,6.60
2023-01-20T15:03:10.268Z,6.60
2023-01-20T15:05:56.298Z,6.50
2023-01-20T15:08:50.839Z,6.20
2023-01-20T15:11:31.289Z,6.20
2023-01-20T15:14:10.425Z,6.90
2023-01-20T15:16:49.224Z,6.90
2023-01-20T15:19:35.544Z,6.50
2023-01-20T15:22:19.109Z,5.90
2023-01-20T15:24:49.941Z,5.70
2023-01-20T15:27:27.408Z,5.70
2023-01-20T15:30:15.989Z,5.70
2023-01-20T15:32:44.157Z,6.30
2023-01-20T15:35:16.129Z,6.00
2023-01-20T15:37:47.819Z,6.10
2023-01-20T15:40:19.165Z,6.10
2023-01-20T15:42:48.551Z,6.00
2023-01-20T15:45:17.394Z,5.70
2023-01-20T15:47:46.872Z,6.10
2023-01-20T15:50:20.407Z,6.50
2023-01-20T15:52:51.600Z,6.50
2023-01-20T15:55:21.111Z,6.60
2023-01-20T15:57:52.536Z,6.90
2023-01-20T16:00:24.844Z,6.70
2023-01-20T16:03:02.725Z,6.30
2023-01-20T16:05:30.603Z,6.10
2023-01-20T16:07:58.501Z,6.10
2023-01-20T16:10:27.774Z,6.10
2023-01-20T16:12:55.725Z,7.20
2023-01-20T16:15:23.566Z,7.30
2023-01-20T16:17:52.696Z,6.90
2023-01-20T16:20:29.230Z,6.50
2023-01-20T16:23:02.819Z,6.10
2023-01-20T16:25:32.750Z,6.40
2023-01-20T16:28:06.286Z,6.40
2023-01-20T16:30:37.239Z,6.70
2023-01-20T16:33:05.161Z,6.60
2023-01-20T16:35:33.062Z,6.90
2023-01-20T16:38:04.312Z,6.90
2023-01-20T16:40:33.673Z,7.20
2023-01-20T16:43:07.715Z,7.30
2023-01-20T16:45:35.745Z,6.80
2023-01-20T16:48:09.068Z,6.80
2023-01-20T16:50:37.512Z,6.20
2023-01-20T16:53:05.474Z,6.40
2023-01-20T16:55:34.757Z,6.60
2023-01-20T16:58:04.703Z,6.90
2023-01-20T17:00:32.589Z,7.20
2023-01-20T17:03:02.272Z,7.10
2023-01-20T17:05:33.215Z,7.40
2023-01-20T17:08:01.246Z,7.60
2023-01-20T17:10:33.994Z,7.90
2023-01-20T17:13:04.662Z,8.20
2023-01-20T17:15:42.781Z,7.80
2023-01-20T17:18:13.548Z,7.40
2023-01-20T17:20:46.995Z,7.00
2023-01-20T17:23:24.870Z,6.70
2023-01-20T17:25:54.111Z,6.50
2023-01-20T17:28:30.636Z,6.70
2023-01-20T17:31:06.552Z,7.20
2023-01-20T17:33:37.593Z,7.30
2023-01-20T17:36:06.993Z,7.20
2023-01-20T17:38:36.582Z,7.40
2023-01-20T17:41:09.320Z,7.30
2023-01-20T17:43:39.224Z,7.40
2023-01-20T17:46:22.363Z,7.60
2023-01-20T17:48:57.268Z,7.50
2023-01-20T17:51:31.396Z,7.50
2023-01-20T17:54:04.115Z,7.90
2023-01-20T17:56:36.439Z,7.50
2023-01-20T17:59:07.174Z,7.20
2023-01-20T18:01:35.255Z,7.60
2023-01-20T18:04:06.225Z,7.30
2023-01-20T18:06:40.287Z,7.30
2023-01-20T18:09:22.729Z,7.60
2023-01-20T18:11:52.092Z,7.60
2023-01-20T18:14:19.982Z,7.60
2023-01-20T18:16:49.950Z,8.00
2023-01-20T18:19:20.693Z,7.90
2023-01-20T18:22:00.381Z,7.40
2023-01-20T18:24:28.231Z,7.10
2023-01-20T18:26:57.963Z,7.20
2023-01-20T18:29:26.010Z,6.80
2023-01-20T18:31:54.537Z,6.60
2023-01-20T18:34:22.511Z,6.30
2023-01-20T18:36:50.534Z,6.60
2023-01-20T18:39:28.097Z,6.30
2023-01-20T18:41:57.331Z,6.00
2023-01-20T18:44:28.226Z,6.40
2023-01-20T18:46:58.897Z,6.80
2023-01-20T18:49:26.750Z,6.70
2023-01-20T18:51:54.677Z,6.50
2023-01-20T18:54:22.533Z,6.70
2023-01-20T18:56:53.528Z,6.60
2023-01-20T18:59:28.809Z,6.20
2023-01-20T19:02:02.979Z,6.00
2023-01-20T19:04:35.646Z,6.20
2023-01-20T19:07:18.537Z,6.40
2023-01-20T19:09:47.622Z,6.10
2023-01-20T19:12:18.631Z,6.50
2023-01-20T19:14:47.886Z,6.90
2023-01-20T19:17:18.519Z,6.50
2023-01-20T19:22:34.484Z,6.30
2023-01-20T19:25:11.940Z,6.10
2023-01-20T19:27:45.049Z,5.70
2023-01-20T19:30:18.252Z,5.80
2023-01-20T19:32:46.277Z,5.90
2023-01-20T19:35:14.316Z,5.60
2023-01-20T19:37:44.954Z,5.60
2023-01-20T19:40:13.327Z,5.60
2023-01-20T19:42:53.204Z,5.70
2023-01-20T19:45:22.440Z,5.50
2023-01-20T19:48:04.228Z,5.50
2023-01-20T19:50:34.907Z,5.70
2023-01-20T19:53:09.030Z,5.60
2023-01-20T19:55:36.893Z,5.70
2023-01-20T19:58:06.208Z,5.80
2023-01-20T20:00:35.458Z,5.60
2023-01-20T20:03:06.613Z,5.90
2023-01-20T20:05:38.254Z,6.00
2023-01-20T20:08:06.384Z,5.70
2023-01-20T20:10:34.332Z,5.70
2023-01-20T20:13:02.144Z,5.80
2023-01-20T20:15:29.985Z,5.60
2023-01-20T20:17:59.141Z,5.40
2023-01-20T20:20:39.124Z,5.50
2023-01-20T20:23:20.887Z,5.20
2023-01-20T20:25:49.768Z,4.90
2023-01-20T20:28:30.102Z,4.60
2023-01-20T20:31:07.615Z,4.50
2023-01-20T20:33:37.648Z,4.60
2023-01-20T20:36:07.523Z,4.60
2023-01-20T20:38:41.037Z,4.50
2023-01-20T20:41:14.712Z,4.30
2023-01-20T20:43:47.932Z,4.60
2023-01-20T20:46:16.890Z,4.90
2023-01-20T20:48:48.652Z,4.60
2023-01-20T20:51:32.208Z,4.40
2023-01-20T20:54:01.803Z,4.50
2023-01-20T20:56:40.809Z,5.20
2023-01-20T20:59:27.189Z,5.50
2023-01-20T21:01:58.073Z,5.10
2023-01-20T21:04:30.585Z,4.80
2023-01-20T21:07:04.255Z,4.90
2023-01-20T21:09:37.186Z,5.40
2023-01-20T21:12:08.178Z,5.50
2023-01-20T21:14:39.223Z,5.10
2023-01-20T21:17:16.080Z,4.90
2023-01-20T21:19:46.282Z,4.60
2023-01-20T21:22:14.146Z,4.40
2023-01-20T21:24:42.030Z,4.30
2023-01-20T21:27:13.311Z,4.50
2023-01-20T21:29:41.196Z,4.50
2023-01-20T21:32:15.802Z,4.30
2023-01-20T21:34:48.188Z,4.10
2023-01-20T21:37:19.028Z,4.20
2023-01-20T21:39:46.892Z,4.70
2023-01-20T21:42:14.773Z,4.70
2023-01-20T21:44:50.838Z,4.60
2023-01-20T21:47:18.746Z,4.20
2023-01-20T21:50:09.301Z,4.40
2023-01-20T21:52:58.913Z,4.50
2023-01-20T21:55:37.715Z,4.40
2023-01-20T21:58:25.395Z,4.00
2023-01-20T22:00:56.419Z,3.80
2023-01-20T22:03:27.394Z,4.10
2023-01-20T22:05:59.181Z,4.00
2023-01-20T22:08:29.825Z,3.90
2023-01-20T22:11:01.355Z,3.90
2023-01-20T22:13:29.368Z,3.90
2023-01-20T22:16:10.828Z,4.00
2023-01-20T22:18:51.455Z,3.80
2023-01-20T22:21:29.680Z,3.80
2023-01-20T22:24:00.361Z,4.20
2023-01-20T22:26:32.740Z,4.30
2023-01-20T22:29:03.428Z,4.20
2023-01-20T22:31:34.223Z,4.10
2023-01-20T22:34:05.096Z,4.30
2023-01-20T22:36:48.202Z,4.30
2023-01-20T22:39:29.985Z,4.10
2023-01-20T22:42:00.981Z,4.10
2023-01-20T22:44:37.122Z,3.80
2023-01-20T22:47:14.629Z,3.80
2023-01-20T22:49:48.446Z,3.50
2023-01-20T22:52:32.611Z,3.70
2023-01-20T22:55:00.495Z,3.90
2023-01-20T22:57:33.041Z,3.70
2023-01-20T23:00:00.915Z,3.70
2023-01-20T23:02:28.822Z,3.50
2023-01-20T23:04:59.843Z,3.40
2023-01-20T23:07:28.117Z,3.30
2023-01-20T23:10:05.729Z,3.10
2023-01-20T23:12:40.906Z,3.30
2023-01-20T23:15:09.269Z,3.30
2023-01-20T23:17:45.981Z,3.30
2023-01-20T23:20:14.488Z,3.30
2023-01-20T23:22:50.172Z,3.50
2023-01-20T23:25:22.181Z,3.30
2023-01-20T23:27:55.476Z,3.60
2023-01-20T23:30:25.657Z,3.90
2023-01-20T23:33:05.896Z,3.80
2023-01-20T23:35:38.886Z,3.60
2023-01-20T23:38:07.639Z,3.60
2023-01-20T23:40:56.250Z,3.80
2023-01-20T23:43:24.193Z,3.80
2023-01-20T23:46:08.338Z,3.50
2023-01-20T23:48:42.237Z,3.60
2023-01-20T23:51:11.104Z,3.90
2023-01-20T23:53:51.440Z,3.70
2023-01-20T23:56:44.910Z,3.50
2023-01-20T23:59:21.059Z,3.60
